createdAt,value
2019-04-20T00:09:04.964Z,95.00
2019-04-20T00:14:10.934Z,97.00
2019-04-20T00:19:17.370Z,97.90
2019-04-20T00:24:26.894Z,99.40
2019-04-20T00:29:45.323Z,99.90
2019-04-20T00:34:39.842Z,99.90
2019-04-20T00:39:40.604Z,99.90
2019-04-20T00:44:49.538Z,99.90
2019-04-20T00:50:05.513Z,99.90
2019-04-20T00:54:58.190Z,99.90
2019-04-20T01:00:21.921Z,99.90
2019-04-20T01:05:35.421Z,99.90
2019-04-20T01:10:23.666Z,99.90
2019-04-20T01:15:38.734Z,99.90
2019-04-20T01:20:35.052Z,99.90
2019-04-20T01:25:43.626Z,99.90
2019-04-20T01:31:01.379Z,99.90
2019-04-20T01:36:08.754Z,99.90
2019-04-20T01:40:59.131Z,99.90
2019-04-20T01:46:10.148Z,99.90
2019-04-20T01:51:19.565Z,99.90
2019-04-20T01:56:32.931Z,99.90
2019-04-20T02:02:05.133Z,99.90
2019-04-20T02:07:08.233Z,99.90
2019-04-20T02:12:19.077Z,99.90
2019-04-20T02:17:33.166Z,99.90
2019-04-20T02:22:42.148Z,99.90
2019-04-20T02:27:42.835Z,99.90
2019-04-20T02:33:30.025Z,99.90
2019-04-20T02:39:05.571Z,99.90
2019-04-20T02:49:04.284Z,99.90
2019-04-20T02:59:45.327Z,99.90
2019-04-20T03:03:52.561Z,99.90
2019-04-20T03:09:22.567Z,99.90
2019-04-20T03:14:18.727Z,99.90
2019-04-20T03:19:23.348Z,99.90
2019-04-20T03:24:37.387Z,99.90
2019-04-20T03:30:40.156Z,99.90
2019-04-20T03:35:23.847Z,99.90
2019-04-20T03:40:22.719Z,99.90
2019-04-20T03:45:18.370Z,99.90
2019-04-20T03:50:41.150Z,99.90
2019-04-20T03:56:03.765Z,99.90
2019-04-20T04:01:37.469Z,99.90
2019-04-20T04:06:26.379Z,99.90
2019-04-20T04:11:40.305Z,99.90
2019-04-20T04:16:37.246Z,99.90
2019-04-20T04:21:46.850Z,99.90
2019-04-20T04:26:56.064Z,99.90
2019-04-20T04:32:49.611Z,99.90
2019-04-20T04:37:17.612Z,99.90
2019-04-20T04:42:37.773Z,99.90
2019-04-20T04:47:12.100Z,99.90
2019-04-20T04:52:25.984Z,99.90
2019-04-20T04:57:22.695Z,99.90
2019-04-20T05:02:33.595Z,99.90
2019-04-20T05:07:49.611Z,99.90
2019-04-20T05:12:41.001Z,99.90
2019-04-20T05:18:05.817Z,99.90
2019-04-20T05:23:13.047Z,99.90
2019-04-20T05:38:41.904Z,99.90
2019-04-20T05:43:47.215Z,99.90
2019-04-20T05:48:56.182Z,99.90
2019-04-20T05:54:05.046Z,99.90
2019-04-20T05:59:05.806Z,99.90
2019-04-20T06:04:17.421Z,99.90
2019-04-20T06:14:43.180Z,99.90
2019-04-20T06:19:54.660Z,99.90
2019-04-20T06:25:26.067Z,99.90
2019-04-20T06:30:10.920Z,99.90
2019-04-20T06:35:37.132Z,99.90
2019-04-20T06:40:45.788Z,99.90
2019-04-20T06:45:44.787Z,99.90
2019-04-20T06:50:39.095Z,99.90
2019-04-20T06:55:58.887Z,99.90
2019-04-20T07:01:04.163Z,99.90
2019-04-20T07:06:26.706Z,99.90
2019-04-20T07:11:18.797Z,99.90
2019-04-20T07:16:36.618Z,99.90
2019-04-20T07:22:10.572Z,99.90
2019-04-20T07:27:04.604Z,99.90
2019-04-20T07:32:05.097Z,99.90
2019-04-20T08:08:13.195Z,99.90
2019-04-20T08:13:25.709Z,99.90
2019-04-20T08:23:33.642Z,99.90
2019-04-20T08:28:33.879Z,99.90
2019-04-20T08:34:02.497Z,99.90
2019-04-20T08:39:15.093Z,99.90
2019-04-20T08:44:09.824Z,99.90
2019-04-20T08:49:13.196Z,99.90
2019-04-20T08:59:02.082Z,99.90
2019-04-20T09:04:13.282Z,99.90
2019-04-20T09:14:23.789Z,99.90
2019-04-20T09:19:42.149Z,99.90
2019-04-20T09:24:58.048Z,99.90
2019-04-20T09:30:00.497Z,99.90
2019-04-20T09:35:11.715Z,99.90
2019-04-20T09:40:55.470Z,99.90
2019-04-20T09:45:47.601Z,99.90
2019-04-20T09:51:21.999Z,99.90
2019-04-20T09:56:24.231Z,99.90
2019-04-20T10:01:29.407Z,99.90
2019-04-20T10:06:24.739Z,95.40
2019-04-20T10:11:29.686Z,96.20
2019-04-20T10:16:35.672Z,93.80
2019-04-20T10:21:41.578Z,93.40
2019-04-20T10:26:46.284Z,87.40
2019-04-20T10:31:55.743Z,85.30
2019-04-20T10:37:17.613Z,84.10
2019-04-20T10:42:23.883Z,89.40
2019-04-20T10:47:29.383Z,86.30
2019-04-20T10:52:35.977Z,78.60
2019-04-20T10:57:41.729Z,71.40
2019-04-20T11:02:48.068Z,75.40
2019-04-20T11:07:52.975Z,76.50
2019-04-20T11:12:57.544Z,68.60
2019-04-20T11:33:18.225Z,74.50
2019-04-20T11:38:24.023Z,67.50
2019-04-20T11:43:35.675Z,64.40
2019-04-20T11:48:41.607Z,67.50
2019-04-20T11:53:46.337Z,76.40
2019-04-20T11:58:51.147Z,81.40
2019-04-20T12:04:05.231Z,84.80
2019-04-20T12:09:05.153Z,66.00
2019-04-20T12:14:12.481Z,63.30
2019-04-20T12:19:18.664Z,67.80
2019-04-20T12:24:24.638Z,69.30
2019-04-20T12:29:29.915Z,60.10
2019-04-20T12:34:35.009Z,58.30
2019-04-20T12:39:39.719Z,60.50
2019-04-20T12:44:44.292Z,66.10
2019-04-20T12:49:49.686Z,64.60
2019-04-20T12:54:54.606Z,74.80
2019-04-20T12:59:59.433Z,67.40
2019-04-20T13:05:04.972Z,64.00
2019-04-20T13:10:09.924Z,59.80
2019-04-20T13:15:42.476Z,51.50
2019-04-20T13:20:48.023Z,54.10
2019-04-20T13:25:52.969Z,54.50
2019-04-20T13:30:57.884Z,50.30
2019-04-20T13:36:03.955Z,52.80
2019-04-20T13:41:09.502Z,50.60
2019-04-20T13:46:15.118Z,49.00
2019-04-20T13:51:21.121Z,49.30
2019-04-20T13:56:26.366Z,60.00
2019-04-20T14:01:42.618Z,52.20
2019-04-20T14:06:48.325Z,47.10
2019-04-20T14:11:53.673Z,43.70
2019-04-20T14:17:05.508Z,43.70
2019-04-20T14:22:10.463Z,42.90
2019-04-20T14:27:30.846Z,43.20
2019-04-20T14:32:36.764Z,42.90
2019-04-20T14:37:41.738Z,46.70
2019-04-20T14:42:50.353Z,42.40
2019-04-20T14:47:53.961Z,44.80
2019-04-20T14:52:59.794Z,44.00
2019-04-20T14:58:08.828Z,42.50
2019-04-20T15:03:38.687Z,44.00
2019-04-20T15:08:44.898Z,42.60
2019-04-20T15:13:50.883Z,43.50
2019-04-20T15:19:13.917Z,44.10
2019-04-20T15:24:19.696Z,43.20
2019-04-20T15:29:24.374Z,43.60
2019-04-20T15:34:29.085Z,42.70
2019-04-20T15:39:34.815Z,46.80
2019-04-20T15:44:39.725Z,45.00
2019-04-20T15:49:44.364Z,45.90
2019-04-20T15:54:49.702Z,42.80
2019-04-20T15:59:54.383Z,44.60
2019-04-20T16:05:10.130Z,43.40
2019-04-20T16:10:15.054Z,46.60
2019-04-20T16:15:19.926Z,44.10
2019-04-20T16:20:25.835Z,42.90
2019-04-20T16:25:41.429Z,42.60
2019-04-20T16:30:47.550Z,44.90
2019-04-20T16:35:52.505Z,42.70
2019-04-20T16:40:57.158Z,40.20
2019-04-20T16:46:01.899Z,42.00
2019-04-20T16:51:06.923Z,45.40
2019-04-20T16:56:13.044Z,43.80
2019-04-20T17:01:19.280Z,41.50
2019-04-20T17:06:24.422Z,42.50
2019-04-20T17:11:29.973Z,42.90
2019-04-20T17:16:35.574Z,43.40
2019-04-20T17:21:42.379Z,43.50
2019-04-20T17:26:57.062Z,43.30
2019-04-20T17:32:11.852Z,44.30
2019-04-20T17:37:16.538Z,44.10
2019-04-20T17:42:36.310Z,45.10
2019-04-20T17:47:47.188Z,46.20
2019-04-20T17:52:49.597Z,46.30
2019-04-20T17:57:43.513Z,46.10
2019-04-20T18:03:07.409Z,45.50
2019-04-20T18:08:20.889Z,51.60
2019-04-20T18:23:49.660Z,47.30
2019-04-20T18:29:15.147Z,50.80
2019-04-20T18:34:15.055Z,52.90
2019-04-20T18:39:22.138Z,53.70
2019-04-20T18:44:32.240Z,54.80
2019-04-20T18:49:43.167Z,55.50
2019-04-20T18:54:42.456Z,58.00
2019-04-20T18:59:49.236Z,56.90
2019-04-20T19:04:51.192Z,58.90
2019-04-20T19:10:02.645Z,58.30
2019-04-20T19:15:30.501Z,59.90
2019-04-20T19:20:28.912Z,60.40
2019-04-20T19:25:37.423Z,61.70
2019-04-20T19:30:49.960Z,61.00
2019-04-20T19:35:56.360Z,61.60
2019-04-20T19:41:05.910Z,63.10
2019-04-20T19:46:45.288Z,63.00
2019-04-20T19:51:29.925Z,63.80
2019-04-20T19:56:32.392Z,65.30
2019-04-20T20:01:25.366Z,66.00
2019-04-20T20:06:41.365Z,68.10
2019-04-20T20:11:42.525Z,68.20
2019-04-20T20:17:06.152Z,69.20
2019-04-20T20:22:02.379Z,71.80
2019-04-20T20:27:02.539Z,72.40
2019-04-20T20:32:15.631Z,80.70
2019-04-20T20:37:14.075Z,74.80
2019-04-20T20:42:28.133Z,77.50
2019-04-20T20:47:41.945Z,89.00
2019-04-20T20:52:43.459Z,93.30
2019-04-20T20:57:45.043Z,91.00
2019-04-20T21:02:47.699Z,89.50
2019-04-20T21:07:49.914Z,90.90
2019-04-20T21:12:59.220Z,93.70
2019-04-20T21:18:20.917Z,99.90
2019-04-20T21:23:17.542Z,95.10
2019-04-20T21:28:13.112Z,96.20
2019-04-20T21:33:20.721Z,94.90
2019-04-20T21:38:24.938Z,95.20
2019-04-20T21:43:33.837Z,96.30
2019-04-20T21:48:51.404Z,96.70
2019-04-20T21:53:42.510Z,99.00
2019-04-20T21:58:50.436Z,98.30
2019-04-20T22:03:56.211Z,99.20
2019-04-20T22:09:02.264Z,99.90
2019-04-20T22:14:15.894Z,99.90
2019-04-20T22:19:28.467Z,99.90
2019-04-20T22:24:39.899Z,99.90
2019-04-20T22:29:28.316Z,99.90
2019-04-20T22:39:47.744Z,99.90
2019-04-20T22:44:56.647Z,99.90
2019-04-20T22:50:16.201Z,99.90
2019-04-20T22:55:25.151Z,99.90
2019-04-20T23:00:15.919Z,99.90
2019-04-20T23:05:18.591Z,99.90
2019-04-20T23:10:27.950Z,99.90
2019-04-20T23:15:30.156Z,99.90
2019-04-20T23:20:38.698Z,99.90
2019-04-20T23:25:42.941Z,99.90
2019-04-20T23:30:54.288Z,99.90
2019-04-20T23:35:56.574Z,99.90
2019-04-20T23:41:01.692Z,99.90
2019-04-20T23:46:31.401Z,99.90
2019-04-20T23:51:54.219Z,99.90
2019-04-20T23:56:41.662Z,99.90
